Time;durP1;ratioP1;P1;durP2;ratioP2;P2;SDS_P1;SDS_P2;PMS_P1;PMS_P2;Temp;Humidity;BMP_temperature;BMP_pressure;BME280_temperature;BME280_humidity;BME280_pressure;Samples;Min_cycle;Max_cycle;Signal;HPM_P1;HPM_P2
2024/01/15 00:01:22;;;;;;;53.85;23.15;;;;;;;;;;6073975;23;20423;-83
2024/01/15 00:03:48;;;;;;;54.58;22.08;;;;;;;;;;6074208;23;20019;-84
2024/01/15 00:06:15;;;;;;;50.40;22.48;;;;;;;;;;6074431;23;20038;-81
2024/01/15 00:08:41;;;;;;;51.05;22.20;;;;;;;;;;6078325;23;20027;-82
2024/01/15 00:11:07;;;;;;;50.55;21.77;;;;;;;;;;6073610;23;20022;-84
2024/01/15 00:13:35;;;;;;;47.95;23.40;;;;;;;;;;6073703;23;20037;-83
2024/01/15 00:16:02;;;;;;;57.50;22.65;;;;;;;;;;6074609;23;20033;-83
2024/01/15 00:18:28;;;;;;;55.72;23.02;;;;;;;;;;6073623;23;20027;-83
2024/01/15 00:20:54;;;;;;;52.75;22.08;;;;;;;;;;6073836;23;20054;-85
2024/01/15 00:23:21;;;;;;;53.67;23.08;;;;;;;;;;6074331;23;20027;-83
2024/01/15 00:25:47;;;;;;;52.38;22.65;;;;;;;;;;6075629;23;20034;-85
2024/01/15 00:28:13;;;;;;;55.95;23.13;;;;;;;;;;6073115;23;20506;-83
2024/01/15 00:30:41;;;;;;;55.63;22.52;;;;;;;;;;6072512;23;20027;-83
2024/01/15 00:33:08;;;;;;;51.75;23.80;;;;;;;;;;6072709;23;20486;-84
2024/01/15 00:35:34;;;;;;;54.83;23.55;;;;;;;;;;6075940;23;20102;-84
2024/01/15 00:38:01;;;;;;;61.65;24.55;;;;;;;;;;6073019;23;20023;-83
2024/01/15 00:40:27;;;;;;;52.72;22.30;;;;;;;;;;6072788;23;20023;-83
2024/01/15 00:42:54;;;;;;;61.47;24.25;;;;;;;;;;6074082;23;20049;-85
2024/01/15 00:45:20;;;;;;;64.00;24.38;;;;;;;;;;6072662;23;20062;-84
2024/01/15 00:47:48;;;;;;;61.35;25.45;;;;;;;;;;6073222;23;20435;-84
2024/01/15 00:50:14;;;;;;;58.67;23.80;;;;;;;;;;6073687;23;20054;-84
2024/01/15 00:52:41;;;;;;;60.38;24.15;;;;;;;;;;6073308;23;20023;-84
2024/01/15 00:55:07;;;;;;;71.18;25.60;;;;;;;;;;6072790;23;20023;-85
2024/01/15 00:57:34;;;;;;;63.53;24.92;;;;;;;;;;6073315;23;20059;-84
2024/01/15 01:00:00;;;;;;;65.22;23.90;;;;;;;;;;6082092;23;20026;-85
2024/01/15 01:02:27;;;;;;;70.18;24.40;;;;;;;;;;6084078;23;20041;-82
2024/01/15 01:04:55;;;;;;;57.00;25.55;;;;;;;;;;6078347;23;20030;-81
2024/01/15 01:07:21;;;;;;;64.47;23.92;;;;;;;;;;6074009;23;20023;-82
2024/01/15 01:09:48;;;;;;;57.75;24.02;;;;;;;;;;6072718;23;20027;-83
2024/01/15 01:12:14;;;;;;;65.32;24.95;;;;;;;;;;6074175;23;20078;-83
2024/01/15 01:14:40;;;;;;;60.17;25.80;;;;;;;;;;6072891;23;20285;-82
2024/01/15 01:17:07;;;;;;;70.50;27.25;;;;;;;;;;6073095;23;20033;-82
2024/01/15 01:19:33;;;;;;;64.25;26.92;;;;;;;;;;6072292;23;20408;-82
2024/01/15 01:22:01;;;;;;;67.00;27.42;;;;;;;;;;6072637;23;20058;-83
2024/01/15 01:24:27;;;;;;;61.92;26.05;;;;;;;;;;6072686;23;20337;-83
2024/01/15 01:26:54;;;;;;;62.55;26.98;;;;;;;;;;6073289;23;20027;-84
2024/01/15 01:29:22;;;;;;;63.03;25.92;;;;;;;;;;6073459;23;20355;-84
2024/01/15 01:31:49;;;;;;;66.25;25.70;;;;;;;;;;6073750;23;20023;-84
2024/01/15 01:34:16;;;;;;;59.83;25.25;;;;;;;;;;6074191;23;20027;-84
2024/01/15 01:36:42;;;;;;;68.45;26.77;;;;;;;;;;6074616;23;20145;-85
2024/01/15 01:39:10;;;;;;;60.67;25.77;;;;;;;;;;6077598;23;20058;-86
2024/01/15 01:41:36;;;;;;;63.28;25.95;;;;;;;;;;6090384;23;20026;-85
2024/01/15 01:44:03;;;;;;;63.10;26.60;;;;;;;;;;6090801;23;20031;-85
2024/01/15 01:46:29;;;;;;;73.22;26.90;;;;;;;;;;6089054;23;20053;-84
2024/01/15 01:48:56;;;;;;;73.20;26.00;;;;;;;;;;6075593;23;20080;-85
2024/01/15 01:51:23;;;;;;;64.38;25.55;;;;;;;;;;6072978;23;20065;-84
2024/01/15 01:53:51;;;;;;;64.82;25.42;;;;;;;;;;6073424;23;20073;-83
2024/01/15 01:56:18;;;;;;;66.55;25.17;;;;;;;;;;6072268;23;20392;-80
2024/01/15 01:58:45;;;;;;;62.10;25.67;;;;;;;;;;6071611;23;20483;-83
2024/01/15 02:01:12;;;;;;;56.63;24.92;;;;;;;;;;6072086;23;20057;-81
2024/01/15 02:03:39;;;;;;;59.30;25.50;;;;;;;;;;6071389;23;20459;-83
2024/01/15 02:06:05;;;;;;;61.92;24.35;;;;;;;;;;6072273;23;20073;-83
2024/01/15 02:08:32;;;;;;;60.65;25.45;;;;;;;;;;6072092;23;20061;-83
2024/01/15 02:10:58;;;;;;;53.97;23.92;;;;;;;;;;6071982;23;20034;-82
2024/01/15 02:13:26;;;;;;;50.78;23.15;;;;;;;;;;6072236;23;20026;-82
2024/01/15 02:15:52;;;;;;;51.60;22.77;;;;;;;;;;6073012;23;20519;-82
2024/01/15 02:18:20;;;;;;;57.83;24.40;;;;;;;;;;6073048;23;20062;-82
2024/01/15 02:20:46;;;;;;;51.42;24.25;;;;;;;;;;6074456;23;20055;-83
2024/01/15 02:23:14;;;;;;;54.25;23.88;;;;;;;;;;6077077;23;20459;-82
2024/01/15 02:25:41;;;;;;;53.40;24.42;;;;;;;;;;6072820;23;20023;-82
2024/01/15 02:28:10;;;;;;;54.58;24.40;;;;;;;;;;6072805;23;20034;-81
2024/01/15 02:30:38;;;;;;;58.70;23.73;;;;;;;;;;6073625;23;20050;-82
2024/01/15 02:33:05;;;;;;;58.50;23.35;;;;;;;;;;6072691;23;20101;-83
2024/01/15 02:35:31;;;;;;;54.08;22.73;;;;;;;;;;6073572;23;20023;-82
2024/01/15 02:37:58;;;;;;;52.40;23.10;;;;;;;;;;6073218;23;20428;-82
2024/01/15 02:40:25;;;;;;;56.60;23.35;;;;;;;;;;6074466;23;20388;-82
2024/01/15 02:42:52;;;;;;;52.70;23.30;;;;;;;;;;6073982;23;20110;-82
2024/01/15 02:45:18;;;;;;;54.72;25.23;;;;;;;;;;6073344;23;20050;-82
2024/01/15 02:47:44;;;;;;;51.97;22.73;;;;;;;;;;6075350;23;20027;-82
2024/01/15 02:50:11;;;;;;;46.78;24.23;;;;;;;;;;6077272;23;20027;-83
2024/01/15 02:52:37;;;;;;;49.30;24.23;;;;;;;;;;6077532;23;20471;-83
2024/01/15 02:55:04;;;;;;;49.20;23.05;;;;;;;;;;6077087;23;20074;-83
2024/01/15 02:57:32;;;;;;;52.88;22.15;;;;;;;;;;6077593;23;20034;-84
2024/01/15 02:59:58;;;;;;;45.63;22.42;;;;;;;;;;6079956;23;20026;-83
2024/01/15 03:02:25;;;;;;;46.88;21.63;;;;;;;;;;6072084;23;20367;-82
2024/01/15 03:04:51;;;;;;;44.63;20.88;;;;;;;;;;6069363;23;20102;-82
2024/01/15 03:07:18;;;;;;;42.28;20.05;;;;;;;;;;6080390;23;20045;-81
2024/01/15 03:09:44;;;;;;;36.22;19.30;;;;;;;;;;6074946;23;20034;-86
2024/01/15 03:12:11;;;;;;;47.60;20.70;;;;;;;;;;6074886;23;20050;-84
2024/01/15 03:14:38;;;;;;;40.08;19.42;;;;;;;;;;6073956;23;20529;-84
2024/01/15 03:17:05;;;;;;;45.13;20.02;;;;;;;;;;6075045;23;20034;-84
2024/01/15 03:19:31;;;;;;;42.95;19.73;;;;;;;;;;6075272;23;20027;-83
2024/01/15 03:21:58;;;;;;;42.90;20.80;;;;;;;;;;6084201;23;20101;-81
2024/01/15 03:24:24;;;;;;;43.67;20.38;;;;;;;;;;6086177;23;20014;-82
2024/01/15 03:26:50;;;;;;;42.67;21.63;;;;;;;;;;6086416;23;20027;-82
2024/01/15 03:29:17;;;;;;;43.38;21.58;;;;;;;;;;6086631;23;20303;-83
2024/01/15 03:31:44;;;;;;;42.88;21.48;;;;;;;;;;6085786;23;20026;-83
2024/01/15 03:34:11;;;;;;;48.38;22.45;;;;;;;;;;6086063;23;20022;-82
2024/01/15 03:36:37;;;;;;;48.35;22.83;;;;;;;;;;6083542;23;20019;-81
2024/01/15 03:39:04;;;;;;;46.65;21.83;;;;;;;;;;6086767;23;20030;-82
2024/01/15 03:41:30;;;;;;;49.40;23.40;;;;;;;;;;6084319;23;20042;-84
2024/01/15 03:43:57;;;;;;;47.00;22.65;;;;;;;;;;6086340;23;20042;-80
2024/01/15 03:46:24;;;;;;;43.08;21.27;;;;;;;;;;6085107;23;20471;-84
2024/01/15 03:48:52;;;;;;;47.45;22.65;;;;;;;;;;6083593;23;20051;-83
2024/01/15 03:51:18;;;;;;;49.38;22.85;;;;;;;;;;6090348;23;20027;-83
2024/01/15 03:53:45;;;;;;;47.50;23.58;;;;;;;;;;6089959;23;20043;-84
2024/01/15 03:56:11;;;;;;;48.55;22.42;;;;;;;;;;6090118;23;20034;-83
2024/01/15 03:58:37;;;;;;;46.42;21.40;;;;;;;;;;6085644;23;20026;-83
2024/01/15 04:01:04;;;;;;;43.67;21.60;;;;;;;;;;6073643;23;20026;-83
2024/01/15 04:03:30;;;;;;;47.65;22.23;;;;;;;;;;6073110;23;20058;-84
2024/01/15 04:05:58;;;;;;;45.83;21.48;;;;;;;;;;6072912;23;20070;-84
2024/01/15 04:08:24;;;;;;;42.50;22.08;;;;;;;;;;6072952;23;20026;-84
2024/01/15 04:10:51;;;;;;;45.88;20.60;;;;;;;;;;6073082;23;20368;-84
2024/01/15 04:13:17;;;;;;;43.95;19.45;;;;;;;;;;6073593;23;20026;-83
2024/01/15 04:15:44;;;;;;;41.45;18.95;;;;;;;;;;6073860;23;20019;-84
2024/01/15 04:18:10;;;;;;;44.70;20.52;;;;;;;;;;6074167;23;20027;-82
2024/01/15 04:20:36;;;;;;;43.30;19.77;;;;;;;;;;6073362;23;20360;-83
2024/01/15 04:23:04;;;;;;;42.80;19.60;;;;;;;;;;6072556;23;20409;-82
2024/01/15 04:25:31;;;;;;;41.60;19.48;;;;;;;;;;6071863;23;20094;-83
2024/01/15 04:27:57;;;;;;;45.38;21.50;;;;;;;;;;6074399;23;20027;-82
2024/01/15 04:30:23;;;;;;;37.35;18.33;;;;;;;;;;6073138;23;20027;-83
2024/01/15 04:32:50;;;;;;;40.20;18.30;;;;;;;;;;6073872;23;20030;-83
2024/01/15 04:35:16;;;;;;;42.63;19.05;;;;;;;;;;6072901;23;20506;-85
2024/01/15 04:37:42;;;;;;;43.33;20.30;;;;;;;;;;6078896;23;20034;-82
2024/01/15 04:40:11;;;;;;;42.05;18.08;;;;;;;;;;6072197;23;20034;-82
2024/01/15 04:42:37;;;;;;;33.22;16.13;;;;;;;;;;6071615;23;20058;-82
2024/01/15 04:45:04;;;;;;;30.98;17.50;;;;;;;;;;6071047;23;20037;-82
2024/01/15 04:47:30;;;;;;;32.05;16.98;;;;;;;;;;6071764;23;20441;-83
2024/01/15 04:49:57;;;;;;;27.70;15.57;;;;;;;;;;6067786;23;20066;-83
2024/01/15 04:52:23;;;;;;;36.25;16.55;;;;;;;;;;6070879;23;20382;-83
2024/01/15 04:54:50;;;;;;;33.58;16.30;;;;;;;;;;6070819;23;20050;-82
2024/01/15 04:57:17;;;;;;;33.65;16.58;;;;;;;;;;6072980;23;20054;-85
2024/01/15 04:59:44;;;;;;;33.08;17.27;;;;;;;;;;6072914;23;20447;-82
2024/01/15 05:02:10;;;;;;;34.78;17.02;;;;;;;;;;6072547;23;20031;-80
2024/01/15 05:04:37;;;;;;;37.97;21.00;;;;;;;;;;6072689;23;20069;-80
2024/01/15 05:07:03;;;;;;;32.30;17.73;;;;;;;;;;6072518;23;20030;-81
2024/01/15 05:09:29;;;;;;;31.88;15.93;;;;;;;;;;6076331;23;20030;-83
2024/01/15 05:11:56;;;;;;;31.67;15.82;;;;;;;;;;6074539;23;20031;-81
2024/01/15 05:14:24;;;;;;;31.92;16.60;;;;;;;;;;6073498;23;20030;-79
2024/01/15 05:16:50;;;;;;;36.30;16.52;;;;;;;;;;6071405;23;20061;-83
2024/01/15 05:19:17;;;;;;;34.13;17.40;;;;;;;;;;6071568;23;20079;-83
2024/01/15 05:21:43;;;;;;;32.63;16.50;;;;;;;;;;6072050;23;20436;-82
2024/01/15 05:24:10;;;;;;;30.98;15.60;;;;;;;;;;6073434;23;20034;-81
2024/01/15 05:26:36;;;;;;;32.58;15.43;;;;;;;;;;6070553;23;20093;-81
2024/01/15 05:29:02;;;;;;;30.38;14.60;;;;;;;;;;6071906;23;20065;-84
2024/01/15 05:31:30;;;;;;;28.30;14.80;;;;;;;;;;6071993;23;20027;-84
2024/01/15 05:33:57;;;;;;;29.80;13.75;;;;;;;;;;6073600;23;20390;-84
2024/01/15 05:36:23;;;;;;;26.10;13.88;;;;;;;;;;6072055;23;20050;-84
2024/01/15 05:38:49;;;;;;;30.75;14.80;;;;;;;;;;6071787;23;20058;-83
2024/01/15 05:41:16;;;;;;;30.17;13.95;;;;;;;;;;6072864;23;20041;-82
2024/01/15 05:43:42;;;;;;;30.15;15.70;;;;;;;;;;6072426;23;20027;-81
2024/01/15 05:46:09;;;;;;;34.15;13.93;;;;;;;;;;6073424;23;20432;-82
2024/01/15 05:48:37;;;;;;;27.88;14.32;;;;;;;;;;6073925;23;20027;-81
2024/01/15 05:51:03;;;;;;;26.70;13.30;;;;;;;;;;6073205;23;20030;-81
2024/01/15 05:53:30;;;;;;;28.15;14.45;;;;;;;;;;6077386;23;20022;-82
2024/01/15 05:55:56;;;;;;;26.77;13.88;;;;;;;;;;6078233;23;20049;-80
2024/01/15 05:58:23;;;;;;;30.55;14.23;;;;;;;;;;6077413;23;20055;-81
2024/01/15 06:00:49;;;;;;;28.73;14.30;;;;;;;;;;6075938;23;20030;-81
2024/01/15 06:03:16;;;;;;;30.10;14.43;;;;;;;;;;6073613;23;20035;-81
2024/01/15 06:05:44;;;;;;;25.95;13.32;;;;;;;;;;6073810;23;20054;-81
2024/01/15 06:08:10;;;;;;;28.98;15.82;;;;;;;;;;6072890;23;20468;-81
2024/01/15 06:10:36;;;;;;;28.17;14.95;;;;;;;;;;6075377;23;20054;-80
2024/01/15 06:13:03;;;;;;;38.55;15.15;;;;;;;;;;6075633;23;20051;-82
2024/01/15 06:15:29;;;;;;;28.80;14.27;;;;;;;;;;6073459;23;20055;-81
2024/01/15 06:17:56;;;;;;;32.65;16.15;;;;;;;;;;6073391;23;20651;-80
2024/01/15 06:20:22;;;;;;;32.53;17.55;;;;;;;;;;6073278;23;20034;-82
2024/01/15 06:22:50;;;;;;;33.35;17.23;;;;;;;;;;6072187;23;20027;-80
2024/01/15 06:25:16;;;;;;;30.25;16.27;;;;;;;;;;6069828;23;20054;-79
2024/01/15 06:27:43;;;;;;;28.75;15.90;;;;;;;;;;6073159;23;20184;-79
2024/01/15 06:30:09;;;;;;;29.55;16.65;;;;;;;;;;6073448;23;20042;-80
2024/01/15 06:32:36;;;;;;;34.10;17.25;;;;;;;;;;6075195;23;20050;-81
2024/01/15 06:35:02;;;;;;;31.17;16.73;;;;;;;;;;6083987;23;20037;-80
2024/01/15 06:37:29;;;;;;;41.20;17.92;;;;;;;;;;6085061;23;20046;-79
2024/01/15 06:39:56;;;;;;;34.60;17.80;;;;;;;;;;6084227;23;20038;-83
2024/01/15 06:42:23;;;;;;;31.45;17.27;;;;;;;;;;6084604;23;20027;-81
2024/01/15 06:44:49;;;;;;;31.27;17.10;;;;;;;;;;6074725;23;20345;-81
2024/01/15 06:47:17;;;;;;;33.83;16.25;;;;;;;;;;6074517;23;20050;-82
2024/01/15 06:49:43;;;;;;;27.88;15.90;;;;;;;;;;6075546;23;20038;-82
2024/01/15 06:52:11;;;;;;;36.30;17.48;;;;;;;;;;6078467;23;20023;-81
2024/01/15 06:54:37;;;;;;;35.45;16.70;;;;;;;;;;6073878;23;20065;-82
2024/01/15 06:57:06;;;;;;;28.80;15.45;;;;;;;;;;6073847;23;20050;-81
2024/01/15 06:59:32;;;;;;;28.95;16.73;;;;;;;;;;6073179;23;20030;-79
2024/01/15 07:01:59;;;;;;;30.02;15.85;;;;;;;;;;6073854;23;20027;-83
2024/01/15 07:04:25;;;;;;;32.65;16.58;;;;;;;;;;6074782;23;20346;-80
2024/01/15 07:06:52;;;;;;;29.85;16.10;;;;;;;;;;6072986;23;20030;-80
2024/01/15 07:09:19;;;;;;;33.45;17.95;;;;;;;;;;6071983;23;20026;-81
2024/01/15 07:11:45;;;;;;;34.85;19.83;;;;;;;;;;6073913;23;20087;-82
2024/01/15 07:14:13;;;;;;;40.35;20.92;;;;;;;;;;6072573;23;20030;-81
2024/01/15 07:16:40;;;;;;;33.20;19.77;;;;;;;;;;6073268;23;20030;-82
2024/01/15 07:19:07;;;;;;;34.70;19.75;;;;;;;;;;6072720;23;20026;-81
2024/01/15 07:21:33;;;;;;;38.47;20.52;;;;;;;;;;6072935;23;20086;-80
2024/01/15 07:24:00;;;;;;;35.70;19.67;;;;;;;;;;6073523;23;20058;-82
2024/01/15 07:26:26;;;;;;;33.83;18.48;;;;;;;;;;6072784;23;20026;-81
2024/01/15 07:28:52;;;;;;;36.83;19.40;;;;;;;;;;6073561;23;20075;-80
2024/01/15 07:31:21;;;;;;;35.38;19.13;;;;;;;;;;6072743;23;20057;-81
2024/01/15 07:33:47;;;;;;;37.35;20.92;;;;;;;;;;6073182;23;20079;-81
2024/01/15 07:36:14;;;;;;;38.10;21.15;;;;;;;;;;6072313;23;20023;-81
2024/01/15 07:38:40;;;;;;;34.85;19.75;;;;;;;;;;6072707;23;20054;-80
2024/01/15 07:41:06;;;;;;;40.30;19.95;;;;;;;;;;6072452;23;20383;-81
2024/01/15 07:43:33;;;;;;;36.05;20.95;;;;;;;;;;6076923;23;20033;-82
2024/01/15 07:45:59;;;;;;;38.65;21.33;;;;;;;;;;6077888;23;20054;-82
2024/01/15 07:48:28;;;;;;;46.08;22.33;;;;;;;;;;6078717;23;20088;-82
2024/01/15 07:50:54;;;;;;;44.15;21.77;;;;;;;;;;6076908;23;20033;-80
2024/01/15 07:53:21;;;;;;;37.22;21.50;;;;;;;;;;6073752;23;20058;-81
2024/01/15 07:55:47;;;;;;;41.00;21.88;;;;;;;;;;6074743;23;20031;-80
2024/01/15 07:58:13;;;;;;;46.53;25.55;;;;;;;;;;6077360;23;20052;-80
2024/01/15 08:00:40;;;;;;;42.15;21.88;;;;;;;;;;6082549;23;20059;-80
2024/01/15 08:03:06;;;;;;;42.63;22.60;;;;;;;;;;6080376;23;20023;-79
2024/01/15 08:05:34;;;;;;;42.67;21.23;;;;;;;;;;6076419;23;20407;-81
2024/01/15 08:08:01;;;;;;;43.88;22.63;;;;;;;;;;6073271;23;20490;-80
2024/01/15 08:10:27;;;;;;;44.33;22.88;;;;;;;;;;6072338;23;20062;-81
2024/01/15 08:12:53;;;;;;;40.97;23.10;;;;;;;;;;6072559;23;20027;-81
2024/01/15 08:15:20;;;;;;;46.15;24.05;;;;;;;;;;6072883;23;20030;-81
2024/01/15 08:17:46;;;;;;;45.10;23.40;;;;;;;;;;6071172;23;20051;-83
2024/01/15 08:20:13;;;;;;;42.42;22.40;;;;;;;;;;6072132;23;20057;-83
2024/01/15 08:22:40;;;;;;;44.55;22.20;;;;;;;;;;6072438;23;20026;-83
2024/01/15 08:25:07;;;;;;;44.60;23.08;;;;;;;;;;6074821;23;20097;-83
2024/01/15 08:27:34;;;;;;;39.58;19.58;;;;;;;;;;6077207;23;20023;-81
2024/01/15 08:30:00;;;;;;;38.58;21.23;;;;;;;;;;6076479;23;20085;-82
2024/01/15 08:32:26;;;;;;;34.88;19.98;;;;;;;;;;6076383;23;20061;-83
2024/01/15 08:34:53;;;;;;;40.30;21.45;;;;;;;;;;6068953;23;20411;-80
2024/01/15 08:37:19;;;;;;;40.95;21.33;;;;;;;;;;6070357;23;20393;-81
2024/01/15 08:39:47;;;;;;;41.47;21.42;;;;;;;;;;6070090;23;20276;-81
2024/01/15 08:42:13;;;;;;;38.22;19.95;;;;;;;;;;6069668;23;20087;-82
2024/01/15 08:44:42;;;;;;;33.83;19.58;;;;;;;;;;6070174;23;20023;-81
2024/01/15 08:47:09;;;;;;;46.58;21.77;;;;;;;;;;6071114;23;20534;-80
2024/01/15 08:49:36;;;;;;;38.67;20.70;;;;;;;;;;6070101;23;20034;-80
2024/01/15 08:52:02;;;;;;;39.80;20.80;;;;;;;;;;6070690;23;20125;-80
2024/01/15 08:54:28;;;;;;;37.80;19.98;;;;;;;;;;6067318;23;20081;-80
2024/01/15 08:56:56;;;;;;;38.15;20.73;;;;;;;;;;6070505;23;20058;-82
2024/01/15 08:59:25;;;;;;;36.00;19.08;;;;;;;;;;6070564;23;20023;-83
2024/01/15 09:01:52;;;;;;;36.75;18.55;;;;;;;;;;6071042;23;20351;-81
2024/01/15 09:04:18;;;;;;;33.03;18.90;;;;;;;;;;6070139;23;20074;-81
2024/01/15 09:06:45;;;;;;;33.50;18.70;;;;;;;;;;6071777;23;20042;-81
2024/01/15 09:09:12;;;;;;;33.38;18.63;;;;;;;;;;6070656;23;20030;-80
2024/01/15 09:11:38;;;;;;;28.83;17.40;;;;;;;;;;6070705;23;20062;-81
2024/01/15 09:14:06;;;;;;;29.20;15.80;;;;;;;;;;6070852;23;20082;-80
2024/01/15 09:16:32;;;;;;;28.23;16.02;;;;;;;;;;6071643;23;20102;-80
2024/01/15 09:18:59;;;;;;;28.02;16.02;;;;;;;;;;6070646;23;20027;-82
2024/01/15 09:21:26;;;;;;;26.13;15.93;;;;;;;;;;6072475;23;20027;-83
2024/01/15 09:23:52;;;;;;;29.83;15.95;;;;;;;;;;6075120;23;20359;-82
2024/01/15 09:26:19;;;;;;;26.60;15.20;;;;;;;;;;6074894;23;20054;-83
2024/01/15 09:28:45;;;;;;;25.20;14.98;;;;;;;;;;6075181;23;20057;-83
2024/01/15 09:31:13;;;;;;;28.88;15.15;;;;;;;;;;6074612;23;20051;-81
2024/01/15 09:33:39;;;;;;;25.83;14.80;;;;;;;;;;6074303;23;20050;-82
2024/01/15 09:36:07;;;;;;;24.77;14.48;;;;;;;;;;6072321;23;20193;-81
2024/01/15 09:38:33;;;;;;;21.63;12.57;;;;;;;;;;6072060;23;20164;-79
2024/01/15 09:41:00;;;;;;;23.27;11.93;;;;;;;;;;6072304;23;20051;-81
2024/01/15 09:43:26;;;;;;;15.98;10.77;;;;;;;;;;6073620;23;20065;-82
2024/01/15 09:45:54;;;;;;;20.90;11.48;;;;;;;;;;6072688;23;20573;-80
2024/01/15 09:48:21;;;;;;;21.95;11.25;;;;;;;;;;6072739;23;20098;-80
2024/01/15 09:50:48;;;;;;;19.45;11.70;;;;;;;;;;6072463;23;20031;-81
2024/01/15 09:53:16;;;;;;;19.77;11.85;;;;;;;;;;6072423;23;20113;-80
2024/01/15 09:55:42;;;;;;;18.45;12.35;;;;;;;;;;6072016;23;20117;-80
2024/01/15 09:58:09;;;;;;;19.20;12.05;;;;;;;;;;6072489;23;20023;-79
2024/01/15 10:00:36;;;;;;;18.90;12.15;;;;;;;;;;6074681;23;20050;-81
2024/01/15 10:03:03;;;;;;;22.27;12.68;;;;;;;;;;6075380;23;20037;-81
2024/01/15 10:05:32;;;;;;;22.02;12.63;;;;;;;;;;6075658;23;20424;-79
2024/01/15 10:07:59;;;;;;;20.02;11.40;;;;;;;;;;6076935;23;20067;-79
2024/01/15 10:10:25;;;;;;;16.70;10.80;;;;;;;;;;6074678;23;20027;-80
2024/01/15 10:12:52;;;;;;;18.83;10.85;;;;;;;;;;6072988;23;20026;-80
2024/01/15 10:15:18;;;;;;;15.95;10.25;;;;;;;;;;6072727;23;20061;-80
2024/01/15 10:17:44;;;;;;;17.33;10.07;;;;;;;;;;6071753;23;20519;-80
2024/01/15 10:20:12;;;;;;;15.60;9.10;;;;;;;;;;6072846;23;20071;-80
2024/01/15 10:22:41;;;;;;;15.90;9.05;;;;;;;;;;6072395;23;20404;-80
2024/01/15 10:25:10;;;;;;;13.23;8.50;;;;;;;;;;6072750;23;20057;-78
2024/01/15 10:27:37;;;;;;;16.98;8.82;;;;;;;;;;6072990;23;20034;-80
2024/01/15 10:30:03;;;;;;;13.43;7.63;;;;;;;;;;6072467;23;20026;-80
2024/01/15 10:32:30;;;;;;;12.32;8.18;;;;;;;;;;6072456;23;20053;-79
2024/01/15 10:34:56;;;;;;;12.05;8.02;;;;;;;;;;6074350;23;20033;-79
2024/01/15 10:37:24;;;;;;;11.05;6.95;;;;;;;;;;6078338;23;20073;-79
2024/01/15 10:39:53;;;;;;;11.88;7.35;;;;;;;;;;6076257;23;20026;-81
2024/01/15 10:42:19;;;;;;;11.85;7.68;;;;;;;;;;6073879;23;20459;-81
2024/01/15 10:44:47;;;;;;;10.43;6.95;;;;;;;;;;6073859;23;20111;-80
2024/01/15 10:47:13;;;;;;;9.93;6.57;;;;;;;;;;6074397;23;20098;-81
2024/01/15 10:49:40;;;;;;;8.77;6.30;;;;;;;;;;6073784;23;20027;-80
2024/01/15 10:52:07;;;;;;;14.93;5.78;;;;;;;;;;6073124;23;20093;-82
2024/01/15 10:54:34;;;;;;;11.25;6.22;;;;;;;;;;6074473;23;20050;-81
2024/01/15 10:57:03;;;;;;;11.57;6.40;;;;;;;;;;6074165;23;20019;-81
2024/01/15 10:59:29;;;;;;;9.00;6.45;;;;;;;;;;6074568;23;20033;-80
2024/01/15 11:01:56;;;;;;;9.30;6.22;;;;;;;;;;6073302;23;20023;-81
2024/01/15 11:04:22;;;;;;;9.10;6.55;;;;;;;;;;6073941;23;20033;-82
2024/01/15 11:06:51;;;;;;;15.82;9.57;;;;;;;;;;6074970;23;20030;-81
2024/01/15 11:09:18;;;;;;;12.20;8.50;;;;;;;;;;6073736;23;20543;-82
2024/01/15 11:11:45;;;;;;;12.55;7.40;;;;;;;;;;6074299;23;20027;-81
2024/01/15 11:14:33;;;;;;;11.68;7.07;;;;;;;;;;6070879;23;20101;-81
2024/01/15 11:17:02;;;;;;;9.70;7.15;;;;;;;;;;6072794;23;20065;-79
2024/01/15 11:19:36;;;;;;;11.55;6.93;;;;;;;;;;6073327;23;20037;-81
2024/01/15 11:22:03;;;;;;;11.45;7.57;;;;;;;;;;6075142;23;20027;-81
2024/01/15 11:24:39;;;;;;;12.00;8.32;;;;;;;;;;6076230;23;20071;-81
2024/01/15 11:27:06;;;;;;;12.65;7.40;;;;;;;;;;6074761;23;20270;-82
2024/01/15 11:29:35;;;;;;;13.18;7.70;;;;;;;;;;6075251;23;20257;-82
2024/01/15 11:32:04;;;;;;;12.20;8.48;;;;;;;;;;6075103;23;20097;-81
2024/01/15 11:34:49;;;;;;;11.90;8.25;;;;;;;;;;6076063;23;20109;-83
2024/01/15 11:37:16;;;;;;;12.45;8.68;;;;;;;;;;6072899;23;20098;-82
2024/01/15 11:39:43;;;;;;;15.50;10.27;;;;;;;;;;6072082;23;20027;-83
2024/01/15 11:42:10;;;;;;;15.90;10.80;;;;;;;;;;6071729;23;20045;-81
2024/01/15 11:44:39;;;;;;;15.57;10.57;;;;;;;;;;6071992;23;20432;-79
2024/01/15 11:47:06;;;;;;;18.90;11.95;;;;;;;;;;6071048;23;20677;-79
2024/01/15 11:49:46;;;;;;;17.58;11.88;;;;;;;;;;6070535;23;20531;-81
2024/01/15 11:52:13;;;;;;;17.77;12.32;;;;;;;;;;6070835;23;20023;-80
2024/01/15 11:54:41;;;;;;;19.70;13.20;;;;;;;;;;6073397;23;20109;-81
2024/01/15 11:57:10;;;;;;;18.98;12.65;;;;;;;;;;6072713;23;20027;-79
2024/01/15 11:59:37;;;;;;;21.33;12.23;;;;;;;;;;6073559;23;20026;-82
2024/01/15 12:02:05;;;;;;;20.67;11.80;;;;;;;;;;6073339;23;20057;-82
2024/01/15 12:04:32;;;;;;;21.85;13.02;;;;;;;;;;6075673;23;20093;-81
2024/01/15 12:06:59;;;;;;;19.23;13.05;;;;;;;;;;6072933;23;20535;-79
2024/01/15 12:09:27;;;;;;;20.23;12.27;;;;;;;;;;6075883;23;20023;-79
2024/01/15 12:11:58;;;;;;;21.15;12.27;;;;;;;;;;6073881;23;20027;-82
2024/01/15 12:14:26;;;;;;;23.33;12.57;;;;;;;;;;6073820;23;20087;-80
2024/01/15 12:16:53;;;;;;;28.27;12.85;;;;;;;;;;6071305;23;20023;-80
2024/01/15 12:19:22;;;;;;;17.40;11.30;;;;;;;;;;6070316;23;20025;-80
2024/01/15 12:21:49;;;;;;;19.92;10.95;;;;;;;;;;6071019;23;20038;-80
2024/01/15 12:24:15;;;;;;;17.65;11.00;;;;;;;;;;6071276;23;20027;-80
2024/01/15 12:26:41;;;;;;;17.65;10.75;;;;;;;;;;6071565;23;20069;-80
2024/01/15 12:29:08;;;;;;;20.50;10.77;;;;;;;;;;6069684;23;20038;-81
2024/01/15 12:31:35;;;;;;;22.63;10.65;;;;;;;;;;6073599;23;20026;-81
2024/01/15 12:34:02;;;;;;;17.55;10.45;;;;;;;;;;6069902;23;20208;-79
2024/01/15 12:36:32;;;;;;;20.67;9.75;;;;;;;;;;6070251;23;20058;-80
2024/01/15 12:39:00;;;;;;;14.70;8.82;;;;;;;;;;6070648;23;20098;-82
2024/01/15 12:41:26;;;;;;;19.52;9.25;;;;;;;;;;6071413;23;20067;-82
2024/01/15 12:43:53;;;;;;;16.77;9.38;;;;;;;;;;6073039;23;20074;-81
2024/01/15 12:46:19;;;;;;;19.90;8.93;;;;;;;;;;6071161;23;20098;-80
2024/01/15 12:48:46;;;;;;;16.90;10.15;;;;;;;;;;6071178;23;20045;-81
2024/01/15 12:51:12;;;;;;;21.30;8.65;;;;;;;;;;6072049;23;20077;-79
2024/01/15 12:53:40;;;;;;;20.05;8.98;;;;;;;;;;6071213;23;20082;-80
2024/01/15 12:56:06;;;;;;;10.10;7.45;;;;;;;;;;6070407;23;20031;-80
2024/01/15 12:58:33;;;;;;;15.15;8.80;;;;;;;;;;6070379;23;20083;-79
2024/01/15 13:01:00;;;;;;;17.95;8.32;;;;;;;;;;6070978;23;20502;-80
2024/01/15 13:03:26;;;;;;;12.98;8.35;;;;;;;;;;6070622;23;20487;-80
2024/01/15 13:05:52;;;;;;;18.45;8.38;;;;;;;;;;6071496;23;20054;-80
2024/01/15 13:08:19;;;;;;;11.88;7.57;;;;;;;;;;6070306;23;20026;-80
2024/01/15 13:10:46;;;;;;;17.50;9.20;;;;;;;;;;6071589;23;20476;-81
2024/01/15 13:13:13;;;;;;;12.13;7.78;;;;;;;;;;6073137;23;20062;-80
2024/01/15 13:15:39;;;;;;;19.08;7.78;;;;;;;;;;6073218;23;20027;-81
2024/01/15 13:18:07;;;;;;;12.30;7.18;;;;;;;;;;6074193;23;20023;-79
2024/01/15 13:20:33;;;;;;;13.88;7.55;;;;;;;;;;6073978;23;20031;-80
2024/01/15 13:23:00;;;;;;;9.95;6.55;;;;;;;;;;6072376;23;20050;-79
2024/01/15 13:25:26;;;;;;;11.85;6.90;;;;;;;;;;6073559;23;20050;-80
2024/01/15 13:27:54;;;;;;;10.23;6.22;;;;;;;;;;6073573;23;20019;-81
2024/01/15 13:30:20;;;;;;;9.25;6.65;;;;;;;;;;6074048;23;20360;-80
2024/01/15 13:32:47;;;;;;;11.27;6.25;;;;;;;;;;6073098;23;20504;-80
2024/01/15 13:35:14;;;;;;;14.45;6.15;;;;;;;;;;6074122;23;20046;-82
2024/01/15 13:37:41;;;;;;;7.35;5.57;;;;;;;;;;6076858;23;20023;-79
2024/01/15 13:40:09;;;;;;;9.77;5.95;;;;;;;;;;6071076;23;20033;-81
2024/01/15 13:42:37;;;;;;;10.98;6.53;;;;;;;;;;6074232;23;20022;-81
2024/01/15 13:45:07;;;;;;;11.73;7.70;;;;;;;;;;6075840;23;20030;-81
2024/01/15 13:47:33;;;;;;;12.20;7.40;;;;;;;;;;6078246;23;20033;-78
2024/01/15 13:50:00;;;;;;;9.15;6.22;;;;;;;;;;6075711;23;20098;-81
2024/01/15 13:52:27;;;;;;;11.35;7.85;;;;;;;;;;6074871;23;20034;-81
2024/01/15 13:54:54;;;;;;;7.60;5.20;;;;;;;;;;6073599;23;20058;-81
2024/01/15 13:57:20;;;;;;;6.70;4.80;;;;;;;;;;6073236;23;20062;-82
2024/01/15 13:59:46;;;;;;;7.07;4.78;;;;;;;;;;6073491;23;20050;-82
2024/01/15 14:02:15;;;;;;;6.07;4.68;;;;;;;;;;6072860;23;20396;-80
2024/01/15 14:04:41;;;;;;;6.18;4.32;;;;;;;;;;6074236;23;20050;-81
2024/01/15 14:07:08;;;;;;;6.30;4.90;;;;;;;;;;6076628;23;20027;-82
2024/01/15 14:09:34;;;;;;;7.35;4.97;;;;;;;;;;6078518;23;20060;-80
2024/01/15 14:26:32;;;;;;;7.25;4.75;;;;;;;;;;6030440;23;20050;-79
2024/01/15 14:28:59;;;;;;;7.90;4.63;;;;;;;;;;6098700;23;20050;-79
2024/01/15 14:31:26;;;;;;;6.60;4.43;;;;;;;;;;6099766;23;20101;-78
2024/01/15 14:33:52;;;;;;;6.68;4.47;;;;;;;;;;6100702;23;20048;-78